Portada
METAR-TAF:

METAR-TAF

Aeroports :

Córdoba, Argentina

latitud: 31-19S, longitud: 064-13W, altitud: 484 m

Observació

L'informe es va fer fa 43 minuts, a les 00:00 UTC
Vent 6 kt del Nord
Temperatura 17°C
Humitat 94%
Pressió 1002 hPa
Visibilitat 10 km o més
Núvols disperses a una alçada de 3500 ft

METAR: SACO 210000Z 36006KT 9999 SCT035 17/16 Q1002 NOSIG

Hora: 21:43 (00:43 UTC)

Pronòstic

L'informe es va fer fa 1 hora i 43 minuts, a les 23:00 UTC
Pronòstic vàlid del 21 a les 00 UTC al 21 a les 24 UTC
Vent 15 kt del Nord-Est
Visibilitat: 8000 m
Núvols disperses a una alçada de 2000 ft
Evolucionant progressivament
l' 21 a les 16 UTC al 21 a les 19 UTC
Vent 25 kt del Sud amb ràfegues de 35 kt
Visibilitat: 5000 m
Núvols disperses a una alçada de 2000 ft
Cel ennuvolat a una alçada de 3500 ft
Pols estès

TAF: SACO 202300Z 2100/2124 05015KT 8000 SCT020 TX24/2118Z TN15/2110Z BECMG 2116/2119 18025G35KT 5000 DU SCT020 BKN035

Observacions i pronòstics meteorològics de més de 4000 aeroports (METAR i TAF).

Les estacions disponibles són els punts grocs i vermells al mapa.

Posi el ratolí al punt desitjat per veure el nom de l'estació.

Feu clic per veure les observacions i els pronòstics meteorològics.

Per canviar el mapa: feu clic els botons verds amb una creu de color negre per apropar; al botó verd amb un guió per allunyar la imatge; o en les fletxes verdes per a mapes adjacents.


METAR-TAF: